PWSweather.com
Personal Weather Stations
Station Observations
REUBENS
Camas Prairie, Reubens, ID 83548

Camas PrairieReubens, ID 83548

Lat: 46.35417, Lon: -116.53167

Elevation: 3480

Station Type: Davis VantagePro 2

http://www.theobrienranch.com/wx/wx.htm

High Low Average
Temperature 71.3°F21.8°C 50.0°F10.0°C 61.8°F16.6°C
Dew Point 52.5°F11.4°C 40.5°F4.7°C 46.2°F7.9°C
Winds 9.2 mph 14.8 kmh Calm Calm 2.0 mph S3.2 kmh S
Wind Gusts 13.8 mph22.2 kmh -- 4.0 mph6.4 kmh
Humidity 82% 46% 57%
Pressure 30.04 in1017.3 mb 29.89 in1012.2 mb -
Precipitation 0.00 in0.0 mm - -
Hour Temp Dew Point Humidity Winds Wind Gusts Pressure Precip Precip Rate Daily Precip Total
12:00 AM 57.5°F14.2°C 42.8°F6.0°C 58% Calm Calm -- 29.92 in1013.2 mb - 0.00 in0.0 mm 0.00 in0.0 mm
12:15 AM 57.6°F14.2°C 42.5°F5.8°C 57% Calm Calm -- 29.91 in1012.9 mb - 0.00 in0.0 mm 0.00 in0.0 mm
12:30 AM 56.8°F13.8°C 44.4°F6.9°C 63% Calm Calm -- 29.91 in1012.9 mb - 0.00 in0.0 mm 0.00 in0.0 mm
12:45 AM 53.7°F12.1°C 44.5°F6.9°C 71% Calm Calm -- 29.92 in1013.2 mb - 0.00 in0.0 mm 0.00 in0.0 mm
01:00 AM 54.6°F12.6°C 42.7°F5.9°C 64% Calm Calm -- 29.92 in1013.2 mb - 0.00 in0.0 mm 0.00 in0.0 mm
01:15 AM 57.2°F14.0°C 43.8°F6.6°C 61% Calm Calm 3.5 mph5.6 kmh 29.89 in1012.2 mb - 0.00 in0.0 mm 0.00 in0.0 mm
01:30 AM 53.8°F12.1°C 44.6°F7.0°C 71% Calm Calm -- 29.90 in1012.5 mb - 0.00 in0.0 mm 0.00 in0.0 mm
01:45 AM 52.5°F11.4°C 44.4°F6.9°C 74% Calm Calm -- 29.90 in1012.5 mb - 0.00 in0.0 mm 0.00 in0.0 mm
02:00 AM 52.9°F11.6°C 44.5°F6.9°C 73% Calm Calm -- 29.90 in1012.5 mb - 0.00 in0.0 mm 0.00 in0.0 mm
02:15 AM 53.1°F11.7°C 43.6°F6.4°C 70% 2.3 mph W3.7 kmh W 3.5 mph5.6 kmh 29.92 in1013.2 mb - 0.00 in0.0 mm 0.00 in0.0 mm
02:30 AM 56.4°F13.6°C 43.5°F6.4°C 62% Calm Calm -- 29.90 in1012.5 mb - 0.00 in0.0 mm 0.00 in0.0 mm
02:45 AM 57.1°F13.9°C 43.3°F6.3°C 60% Calm Calm -- 29.90 in1012.5 mb - 0.00 in0.0 mm 0.00 in0.0 mm
03:00 AM 57.3°F14.1°C 43.5°F6.4°C 60% Calm Calm 1.2 mph1.9 kmh 29.90 in1012.5 mb - 0.00 in0.0 mm 0.00 in0.0 mm
03:15 AM 56.7°F13.7°C 43.4°F6.3°C 61% Calm Calm -- 29.89 in1012.2 mb - 0.00 in0.0 mm 0.00 in0.0 mm
03:30 AM 56.8°F13.8°C 44.7°F7.1°C 64% 2.3 mph W3.7 kmh W 3.5 mph5.6 kmh 29.89 in1012.2 mb - 0.00 in0.0 mm 0.00 in0.0 mm
03:45 AM 56.1°F13.4°C 44.5°F6.9°C 65% Calm Calm -- 29.89 in1012.2 mb - 0.00 in0.0 mm 0.00 in0.0 mm
04:00 AM 56.1°F13.4°C 44.1°F6.7°C 64% Calm Calm -- 29.89 in1012.2 mb - 0.00 in0.0 mm 0.00 in0.0 mm
04:15 AM 55.8°F13.2°C 44.2°F6.8°C 65% Calm Calm -- 29.89 in1012.2 mb - 0.00 in0.0 mm 0.00 in0.0 mm
04:30 AM 55.3°F12.9°C 43.7°F6.5°C 65% Calm Calm -- 29.90 in1012.5 mb - 0.00 in0.0 mm 0.00 in0.0 mm
04:45 AM 55.1°F12.8°C 43.6°F6.4°C 65% Calm Calm 4.6 mph7.4 kmh 29.91 in1012.9 mb - 0.00 in0.0 mm 0.00 in0.0 mm
05:00 AM 55.7°F13.2°C 42.9°F6.1°C 62% 2.3 mph NNW3.7 kmh NNW 4.6 mph7.4 kmh 29.91 in1012.9 mb - 0.00 in0.0 mm 0.00 in0.0 mm
05:15 AM 55.2°F12.9°C 42.4°F5.8°C 62% Calm Calm 3.5 mph5.6 kmh 29.91 in1012.9 mb - 0.00 in0.0 mm 0.00 in0.0 mm
05:30 AM 54.8°F12.7°C 42.0°F5.6°C 62% 1.2 mph NNW1.9 kmh NNW 3.5 mph5.6 kmh 29.92 in1013.2 mb - 0.00 in0.0 mm 0.00 in0.0 mm
05:45 AM 55.6°F13.1°C 41.9°F5.5°C 60% Calm Calm -- 29.92 in1013.2 mb - 0.00 in0.0 mm 0.00 in0.0 mm
06:00 AM 56.2°F13.4°C 40.7°F4.8°C 56% Calm Calm -- 29.92 in1013.2 mb - 0.00 in0.0 mm 0.00 in0.0 mm
06:15 AM 57.3°F14.1°C 41.3°F5.2°C 55% Calm Calm -- 29.93 in1013.5 mb - 0.00 in0.0 mm 0.00 in0.0 mm
06:30 AM 58.4°F14.7°C 41.3°F5.2°C 53% 1.2 mph N1.9 kmh N 1.2 mph1.9 kmh 29.93 in1013.5 mb - 0.00 in0.0 mm 0.00 in0.0 mm
06:45 AM 59.1°F15.1°C 40.5°F4.7°C 50% 1.2 mph NW1.9 kmh NW 3.5 mph5.6 kmh 29.94 in1013.9 mb - 0.00 in0.0 mm 0.00 in0.0 mm
07:00 AM 60.8°F16.0°C 42.0°F5.6°C 50% 2.3 mph NNW3.7 kmh NNW 5.8 mph9.3 kmh 29.93 in1013.5 mb - 0.00 in0.0 mm 0.00 in0.0 mm
07:15 AM 61.4°F16.3°C 41.5°F5.3°C 48% 1.2 mph NW1.9 kmh NW 3.5 mph5.6 kmh 29.96 in1014.6 mb - 0.00 in0.0 mm 0.00 in0.0 mm
07:30 AM 61.9°F16.6°C 43.0°F6.1°C 50% 2.3 mph NNW3.7 kmh NNW 5.8 mph9.3 kmh 29.96 in1014.6 mb - 0.00 in0.0 mm 0.00 in0.0 mm
07:45 AM 63.1°F17.3°C 44.2°F6.8°C 50% Calm Calm 4.6 mph7.4 kmh 29.97 in1014.9 mb - 0.00 in0.0 mm 0.00 in0.0 mm
08:00 AM 63.7°F17.6°C 43.0°F6.1°C 47% 2.3 mph N3.7 kmh N 6.9 mph11.1 kmh 29.97 in1014.9 mb - 0.00 in0.0 mm 0.00 in0.0 mm
08:15 AM 63.7°F17.6°C 45.7°F7.6°C 52% Calm Calm 4.6 mph7.4 kmh 30.00 in1015.9 mb - 0.00 in0.0 mm 0.00 in0.0 mm
08:30 AM 64.5°F18.1°C 44.4°F6.9°C 48% 2.3 mph NNW3.7 kmh NNW 3.5 mph5.6 kmh 30.00 in1015.9 mb - 0.00 in0.0 mm 0.00 in0.0 mm
08:45 AM 64.8°F18.2°C 44.7°F7.1°C 48% 1.2 mph NNW1.9 kmh NNW 3.5 mph5.6 kmh 30.00 in1015.9 mb - 0.00 in0.0 mm 0.00 in0.0 mm
09:00 AM 65.2°F18.4°C 47.1°F8.4°C 52% 2.3 mph N3.7 kmh N 6.9 mph11.1 kmh 30.00 in1015.9 mb - 0.00 in0.0 mm 0.00 in0.0 mm
09:15 AM 65.6°F18.7°C 47.0°F8.3°C 51% 2.3 mph NW3.7 kmh NW 3.5 mph5.6 kmh 30.00 in1015.9 mb - 0.00 in0.0 mm 0.00 in0.0 mm
09:30 AM 66.1°F18.9°C 46.4°F8.0°C 49% 3.5 mph N5.6 kmh N 4.6 mph7.4 kmh 30.01 in1016.3 mb - 0.00 in0.0 mm 0.00 in0.0 mm
09:45 AM 65.9°F18.8°C 48.3°F9.1°C 53% 5.8 mph N9.3 kmh N 6.9 mph11.1 kmh 30.00 in1015.9 mb - 0.00 in0.0 mm 0.00 in0.0 mm
10:00 AM 66.6°F19.2°C 49.5°F9.7°C 54% Calm Calm 3.5 mph5.6 kmh 30.00 in1015.9 mb - 0.00 in0.0 mm 0.00 in0.0 mm
10:15 AM 66.4°F19.1°C 48.2°F9.0°C 52% Calm Calm 3.5 mph5.6 kmh 30.02 in1016.6 mb - 0.00 in0.0 mm 0.00 in0.0 mm
10:30 AM 67.2°F19.6°C 48.4°F9.1°C 51% 1.2 mph N1.9 kmh N 4.6 mph7.4 kmh 30.01 in1016.3 mb - 0.00 in0.0 mm 0.00 in0.0 mm
10:45 AM 66.7°F19.3°C 48.5°F9.2°C 52% 2.3 mph N3.7 kmh N 5.8 mph9.3 kmh 30.01 in1016.3 mb - 0.00 in0.0 mm 0.00 in0.0 mm
11:00 AM 67.9°F19.9°C 48.6°F9.2°C 50% 2.3 mph NW3.7 kmh NW 11.5 mph18.5 kmh 30.01 in1016.3 mb - 0.00 in0.0 mm 0.00 in0.0 mm
11:15 AM 69.3°F20.7°C 48.7°F9.3°C 48% 2.3 mph NNE3.7 kmh NNE 5.8 mph9.3 kmh 30.02 in1016.6 mb - 0.00 in0.0 mm 0.00 in0.0 mm
11:30 AM 68.2°F20.1°C 48.3°F9.1°C 49% 4.6 mph N7.4 kmh N 9.2 mph14.8 kmh 30.02 in1016.6 mb - 0.00 in0.0 mm 0.00 in0.0 mm
11:45 AM 68.5°F20.3°C 48.0°F8.9°C 48% 5.8 mph NNW9.3 kmh NNW 11.5 mph18.5 kmh 30.02 in1016.6 mb - 0.00 in0.0 mm 0.00 in0.0 mm
12:00 PM 69.4°F20.8°C 48.8°F9.3°C 48% 5.8 mph NNE9.3 kmh NNE 11.5 mph18.5 kmh 30.02 in1016.6 mb - 0.00 in0.0 mm 0.00 in0.0 mm
12:15 PM 67.5°F19.7°C 48.2°F9.0°C 50% 4.6 mph N7.4 kmh N 11.5 mph18.5 kmh 30.03 in1016.9 mb - 0.00 in0.0 mm 0.00 in0.0 mm
12:30 PM 66.4°F19.1°C 46.7°F8.2°C 49% 3.5 mph N5.6 kmh N 6.9 mph11.1 kmh 30.03 in1016.9 mb - 0.00 in0.0 mm 0.00 in0.0 mm
12:45 PM 66.2°F19.0°C 47.0°F8.3°C 50% 5.8 mph NNW9.3 kmh NNW 10.4 mph16.7 kmh 30.04 in1017.3 mb - 0.00 in0.0 mm 0.00 in0.0 mm
01:00 PM 67.1°F19.5°C 48.9°F9.4°C 52% 1.2 mph NNW1.9 kmh NNW 5.8 mph9.3 kmh 30.02 in1016.6 mb - 0.00 in0.0 mm 0.00 in0.0 mm
01:15 PM 69.0°F20.6°C 47.4°F8.6°C 46% 5.8 mph N9.3 kmh N 10.4 mph16.7 kmh 30.03 in1016.9 mb - 0.00 in0.0 mm 0.00 in0.0 mm
01:30 PM 67.5°F19.7°C 47.7°F8.7°C 49% 6.9 mph NE11.1 kmh NE 11.5 mph18.5 kmh 30.04 in1017.3 mb - 0.00 in0.0 mm 0.00 in0.0 mm
01:45 PM 67.5°F19.7°C 47.6°F8.7°C 49% 6.9 mph NE11.1 kmh NE 10.4 mph16.7 kmh 30.04 in1017.3 mb - 0.00 in0.0 mm 0.00 in0.0 mm
02:00 PM 68.3°F20.2°C 49.0°F9.4°C 50% 9.2 mph NNE14.8 kmh NNE 11.5 mph18.5 kmh 30.03 in1016.9 mb - 0.00 in0.0 mm 0.00 in0.0 mm
02:15 PM 70.9°F21.6°C 49.7°F9.8°C 47% 2.3 mph NNW3.7 kmh NNW 3.5 mph5.6 kmh 30.00 in1015.9 mb - 0.00 in0.0 mm 0.00 in0.0 mm
02:30 PM 71.3°F21.8°C 50.0°F10.0°C 47% 2.3 mph NNW3.7 kmh NNW 6.9 mph11.1 kmh 30.00 in1015.9 mb - 0.00 in0.0 mm 0.00 in0.0 mm
02:45 PM 69.8°F21.0°C 49.2°F9.6°C 48% 4.6 mph 7.4 kmh 11.5 mph18.5 kmh 30.00 in1015.9 mb - 0.00 in0.0 mm 0.00 in0.0 mm
03:00 PM 67.7°F19.8°C 48.9°F9.4°C 51% 6.9 mph N11.1 kmh N 13.8 mph22.2 kmh 30.01 in1016.3 mb - 0.00 in0.0 mm 0.00 in0.0 mm
03:15 PM 67.4°F19.7°C 49.7°F9.8°C 53% 3.5 mph NNE5.6 kmh NNE 5.8 mph9.3 kmh 30.02 in1016.6 mb - 0.00 in0.0 mm 0.00 in0.0 mm
03:30 PM 69.3°F20.7°C 52.5°F11.4°C 55% 2.3 mph NW3.7 kmh NW 6.9 mph11.1 kmh 30.01 in1016.3 mb - 0.00 in0.0 mm 0.00 in0.0 mm
03:45 PM 67.2°F19.6°C 48.5°F9.2°C 51% 6.9 mph N11.1 kmh N 10.4 mph16.7 kmh 30.02 in1016.6 mb - 0.00 in0.0 mm 0.00 in0.0 mm
04:00 PM 66.3°F19.1°C 48.2°F9.0°C 52% 2.3 mph NNW3.7 kmh NNW 5.8 mph9.3 kmh 30.02 in1016.6 mb - 0.00 in0.0 mm 0.00 in0.0 mm
04:15 PM 67.9°F19.9°C 49.6°F9.8°C 52% 5.8 mph N9.3 kmh N 9.2 mph14.8 kmh 30.01 in1016.3 mb - 0.00 in0.0 mm 0.00 in0.0 mm
04:30 PM 69.5°F20.8°C 48.9°F9.4°C 48% 4.6 mph NNW7.4 kmh NNW 11.5 mph18.5 kmh 30.00 in1015.9 mb - 0.00 in0.0 mm 0.00 in0.0 mm
04:45 PM 69.3°F20.7°C 50.9°F10.5°C 52% 4.6 mph NW7.4 kmh NW 5.8 mph9.3 kmh 30.00 in1015.9 mb - 0.00 in0.0 mm 0.00 in0.0 mm
05:00 PM 69.5°F20.8°C 49.5°F9.7°C 49% 5.8 mph NW9.3 kmh NW 11.5 mph18.5 kmh 30.00 in1015.9 mb - 0.00 in0.0 mm 0.00 in0.0 mm
05:15 PM 69.1°F20.6°C 49.7°F9.8°C 50% 5.8 mph N9.3 kmh N 9.2 mph14.8 kmh 30.00 in1015.9 mb - 0.00 in0.0 mm 0.00 in0.0 mm
05:30 PM 69.4°F20.8°C 49.4°F9.7°C 49% 4.6 mph NNW7.4 kmh NNW 9.2 mph14.8 kmh 29.99 in1015.6 mb - 0.00 in0.0 mm 0.00 in0.0 mm
05:45 PM 67.9°F19.9°C 49.1°F9.5°C 51% 1.2 mph N1.9 kmh N 5.8 mph9.3 kmh 30.00 in1015.9 mb - 0.00 in0.0 mm 0.00 in0.0 mm
06:00 PM 68.5°F20.3°C 48.0°F8.9°C 48% 5.8 mph N9.3 kmh N 9.2 mph14.8 kmh 29.99 in1015.6 mb - 0.00 in0.0 mm 0.00 in0.0 mm
06:15 PM 68.0°F20.0°C 48.7°F9.3°C 50% 3.5 mph N5.6 kmh N 5.8 mph9.3 kmh 29.98 in1015.2 mb - 0.00 in0.0 mm 0.00 in0.0 mm
06:30 PM 68.6°F20.3°C 48.2°F9.0°C 48% 4.6 mph N7.4 kmh N 9.2 mph14.8 kmh 29.97 in1014.9 mb - 0.00 in0.0 mm 0.00 in0.0 mm
06:45 PM 67.8°F19.9°C 48.5°F9.2°C 50% 3.5 mph N5.6 kmh N 6.9 mph11.1 kmh 29.98 in1015.2 mb - 0.00 in0.0 mm 0.00 in0.0 mm
07:00 PM 66.7°F19.3°C 48.5°F9.2°C 52% 1.2 mph NW1.9 kmh NW 3.5 mph5.6 kmh 29.99 in1015.6 mb - 0.00 in0.0 mm 0.00 in0.0 mm
07:15 PM 66.3°F19.1°C 48.7°F9.3°C 53% Calm Calm 1.2 mph1.9 kmh 29.98 in1015.2 mb - 0.00 in0.0 mm 0.00 in0.0 mm
07:30 PM 65.2°F18.4°C 47.6°F8.7°C 53% 3.5 mph NNE5.6 kmh NNE 5.8 mph9.3 kmh 29.99 in1015.6 mb - 0.00 in0.0 mm 0.00 in0.0 mm
07:45 PM 64.1°F17.8°C 47.6°F8.7°C 55% 2.3 mph NNE3.7 kmh NNE 3.5 mph5.6 kmh 29.99 in1015.6 mb - 0.00 in0.0 mm 0.00 in0.0 mm
08:00 PM 63.5°F17.5°C 47.5°F8.6°C 56% 1.2 mph NNE1.9 kmh NNE 3.5 mph5.6 kmh 29.99 in1015.6 mb - 0.00 in0.0 mm 0.00 in0.0 mm
08:15 PM 62.7°F17.1°C 46.8°F8.2°C 56% Calm Calm -- 29.99 in1015.6 mb - 0.00 in0.0 mm 0.00 in0.0 mm
08:30 PM 61.7°F16.5°C 45.4°F7.4°C 55% Calm Calm -- 29.99 in1015.6 mb - 0.00 in0.0 mm 0.00 in0.0 mm
08:45 PM 60.9°F16.1°C 44.6°F7.0°C 55% Calm Calm -- 29.99 in1015.6 mb - 0.00 in0.0 mm 0.00 in0.0 mm
09:00 PM 60.3°F15.7°C 44.5°F6.9°C 56% Calm Calm -- 30.00 in1015.9 mb - 0.00 in0.0 mm 0.00 in0.0 mm
09:15 PM 59.6°F15.3°C 44.8°F7.1°C 58% Calm Calm -- 30.00 in1015.9 mb - 0.00 in0.0 mm 0.00 in0.0 mm
09:30 PM 57.6°F14.2°C 47.5°F8.6°C 69% Calm Calm -- 30.00 in1015.9 mb - 0.00 in0.0 mm 0.00 in0.0 mm
09:45 PM 56.6°F13.7°C 45.4°F7.4°C 66% Calm Calm -- 30.01 in1016.3 mb - 0.00 in0.0 mm 0.00 in0.0 mm
10:00 PM 56.3°F13.5°C 46.7°F8.2°C 70% Calm Calm -- 30.01 in1016.3 mb - 0.00 in0.0 mm 0.00 in0.0 mm
10:15 PM 54.9°F12.7°C 46.4°F8.0°C 73% Calm Calm -- 30.00 in1015.9 mb - 0.00 in0.0 mm 0.00 in0.0 mm
10:30 PM 53.0°F11.7°C 46.3°F7.9°C 78% Calm Calm 2.3 mph3.7 kmh 30.00 in1015.9 mb - 0.00 in0.0 mm 0.00 in0.0 mm
10:45 PM 51.3°F10.7°C 45.7°F7.6°C 81% Calm Calm -- 30.01 in1016.3 mb - 0.00 in0.0 mm 0.00 in0.0 mm
11:00 PM 50.8°F10.4°C 45.5°F7.5°C 82% Calm Calm -- 30.01 in1016.3 mb - 0.00 in0.0 mm 0.00 in0.0 mm
11:15 PM 50.0°F10.0°C 44.4°F6.9°C 81% Calm Calm -- 30.02 in1016.6 mb - 0.00 in0.0 mm 0.00 in0.0 mm
11:30 PM 51.4°F10.8°C 44.1°F6.7°C 76% Calm Calm -- 30.02 in1016.6 mb - 0.00 in0.0 mm 0.00 in0.0 mm
11:45 PM 50.5°F10.3°C 44.3°F6.8°C 79% Calm Calm -- 30.02 in1016.6 mb - 0.00 in0.0 mm 0.00 in0.0 mm